Time;durP1;ratioP1;P1;durP2;ratioP2;P2;SDS_P1;SDS_P2;PMS_P1;PMS_P2;Temp;Humidity;BMP_temperature;BMP_pressure;BME280_temperature;BME280_humidity;BME280_pressure;Samples;Min_cycle;Max_cycle;Signal;HPM_P1;HPM_P2
2023/03/27 00:01:14;;;;;;;9.95;1.10;;;4.60;99.90;;;;;;4961679;28;20087;-84
2023/03/27 00:03:41;;;;;;;7.68;1.55;;;4.60;99.90;;;;;;4956064;28;20106;-83
2023/03/27 00:06:10;;;;;;;11.88;1.65;;;4.60;99.90;;;;;;4956725;28;20081;-83
2023/03/27 00:08:39;;;;;;;7.65;1.10;;;4.60;99.90;;;;;;4956010;28;20022;-84
2023/03/27 00:11:06;;;;;;;8.05;1.38;;;4.50;99.90;;;;;;4954947;28;20700;-85
2023/03/27 00:13:35;;;;;;;17.17;1.33;;;4.50;99.90;;;;;;4962003;28;20102;-84
2023/03/27 00:16:01;;;;;;;8.48;1.20;;;4.50;99.90;;;;;;4955979;28;20113;-84
2023/03/27 00:18:28;;;;;;;15.18;1.52;;;4.50;99.90;;;;;;4953237;28;20398;-84
2023/03/27 00:20:57;;;;;;;11.50;1.63;;;4.50;99.90;;;;;;4955956;28;20019;-84
2023/03/27 00:23:23;;;;;;;3.80;1.35;;;4.50;99.90;;;;;;4955407;28;20062;-85
2023/03/27 00:25:50;;;;;;;13.10;1.73;;;4.50;99.90;;;;;;4960686;28;20593;-83
2023/03/27 00:28:19;;;;;;;7.40;1.60;;;4.50;99.90;;;;;;4964081;28;20026;-85
2023/03/27 00:30:46;;;;;;;13.52;1.90;;;4.40;99.90;;;;;;4946721;28;20264;-84
2023/03/27 00:33:13;;;;;;;7.97;1.70;;;4.50;99.90;;;;;;4942007;28;20219;-84
2023/03/27 00:35:45;;;;;;;15.77;1.27;;;4.40;99.90;;;;;;4955667;28;20122;-82
2023/03/27 00:38:11;;;;;;;7.23;1.63;;;4.40;99.90;;;;;;4939642;28;20051;-83
2023/03/27 00:40:37;;;;;;;13.27;1.85;;;4.40;99.90;;;;;;4956874;28;20027;-83
2023/03/27 00:43:25;;;;;;;11.48;1.42;;;4.40;99.90;;;;;;4957734;28;20037;-85
2023/03/27 00:45:56;;;;;;;4.13;1.20;;;4.30;99.90;;;;;;4952899;28;20027;-84
2023/03/27 00:48:23;;;;;;;4.68;1.20;;;4.30;99.90;;;;;;4956799;28;20031;-84
2023/03/27 00:50:50;;;;;;;11.90;1.55;;;4.30;99.90;;;;;;4956561;28;20324;-84
2023/03/27 00:53:25;;;;;;;12.85;1.27;;;4.30;99.90;;;;;;4960769;28;20247;-84
2023/03/27 00:55:53;;;;;;;9.25;1.73;;;4.30;99.90;;;;;;4961036;28;20019;-84
2023/03/27 00:58:30;;;;;;;13.77;1.60;;;4.30;99.90;;;;;;4946209;28;20031;-84
2023/03/27 01:00:59;;;;;;;6.97;1.52;;;4.20;99.90;;;;;;4960612;28;20102;-85
2023/03/27 01:03:30;;;;;;;14.98;1.98;;;4.20;99.90;;;;;;4955363;28;20027;-83
2023/03/27 01:05:57;;;;;;;11.98;2.10;;;4.20;99.90;;;;;;4953760;28;20117;-84
2023/03/27 01:08:26;;;;;;;6.63;1.40;;;4.20;99.90;;;;;;4954830;28;20031;-84
2023/03/27 01:11:00;;;;;;;11.50;1.48;;;4.20;99.90;;;;;;4956786;28;20038;-84
2023/03/27 01:13:49;;;;;;;16.60;1.45;;;4.20;99.90;;;;;;4946620;28;20019;-83
2023/03/27 01:16:26;;;;;;;3.88;1.50;;;4.10;99.90;;;;;;4957022;28;20019;-84
2023/03/27 01:19:05;;;;;;;2.97;1.13;;;4.10;99.90;;;;;;4952669;28;20018;-83
2023/03/27 01:22:01;;;;;;;14.15;2.08;;;4.10;99.90;;;;;;4952941;28;20071;-84
2023/03/27 01:25:18;;;;;;;7.68;1.80;;;4.10;99.90;;;;;;4956761;28;20054;-84
2023/03/27 01:28:16;;;;;;;8.27;1.58;;;4.00;99.90;;;;;;4951431;28;20086;-85
2023/03/27 01:31:05;;;;;;;6.20;1.55;;;4.00;99.90;;;;;;4910948;28;20043;-84
2023/03/27 01:34:05;;;;;;;8.50;1.83;;;4.00;99.90;;;;;;4915441;28;20042;-85
2023/03/27 01:36:49;;;;;;;14.90;1.80;;;4.00;99.90;;;;;;4938745;28;20196;-84
2023/03/27 01:39:29;;;;;;;19.73;1.90;;;4.00;99.90;;;;;;4957733;28;20027;-85
2023/03/27 01:42:04;;;;;;;7.80;1.10;;;3.90;99.90;;;;;;4960298;28;20380;-85
2023/03/27 01:44:38;;;;;;;13.18;1.55;;;3.90;99.90;;;;;;4949730;28;20030;-84
2023/03/27 01:47:18;;;;;;;13.95;2.10;;;3.90;99.90;;;;;;4949963;28;20106;-84
2023/03/27 01:49:55;;;;;;;11.30;2.10;;;3.80;99.90;;;;;;4941661;28;20025;-84
2023/03/27 01:52:30;;;;;;;10.35;1.98;;;3.80;99.90;;;;;;4943538;28;20034;-84
2023/03/27 01:55:03;;;;;;;7.15;2.13;;;3.80;99.90;;;;;;4960949;28;20023;-84
2023/03/27 01:57:37;;;;;;;11.93;2.03;;;3.80;99.90;;;;;;4945666;28;20031;-84
2023/03/27 02:00:16;;;;;;;13.27;2.20;;;3.90;99.90;;;;;;4960029;28;20208;-84
2023/03/27 02:03:02;;;;;;;9.80;1.80;;;3.80;99.90;;;;;;4961619;28;20014;-83
2023/03/27 02:06:00;;;;;;;3.15;1.58;;;3.90;99.90;;;;;;4960089;28;20023;-84
2023/03/27 02:08:35;;;;;;;8.98;2.08;;;3.80;99.90;;;;;;4948078;28;20030;-84
2023/03/27 02:11:00;;;;;;;16.80;2.13;;;3.90;99.90;;;;;;4962442;28;20023;-83
2023/03/27 02:13:40;;;;;;;10.00;1.83;;;3.90;99.90;;;;;;4960288;28;20031;-84
2023/03/27 02:16:10;;;;;;;10.65;2.03;;;3.80;99.90;;;;;;4948099;28;20102;-84
2023/03/27 02:18:46;;;;;;;7.82;2.10;;;3.80;99.90;;;;;;4950485;28;20077;-83
2023/03/27 02:21:16;;;;;;;7.80;1.63;;;3.80;99.90;;;;;;4939241;28;20042;-83
2023/03/27 02:23:46;;;;;;;15.95;1.90;;;3.80;99.90;;;;;;4957430;28;20039;-85
2023/03/27 02:26:14;;;;;;;7.45;1.42;;;3.80;99.90;;;;;;4957781;28;20030;-84
2023/03/27 02:28:45;;;;;;;5.35;1.65;;;3.80;99.90;;;;;;4959143;28;20031;-84
2023/03/27 02:31:20;;;;;;;8.27;1.33;;;3.90;99.90;;;;;;4958787;28;20125;-84
2023/03/27 02:33:58;;;;;;;9.18;1.67;;;3.80;99.90;;;;;;4956445;28;20038;-84
2023/03/27 02:36:35;;;;;;;18.40;1.80;;;3.90;99.90;;;;;;4969390;28;20732;-84
2023/03/27 02:39:04;;;;;;;15.20;1.65;;;3.90;99.90;;;;;;4963220;28;20089;-84
2023/03/27 02:41:40;;;;;;;10.35;1.63;;;3.90;99.90;;;;;;4962557;28;20054;-84
2023/03/27 02:44:30;;;;;;;9.25;2.15;;;3.90;99.90;;;;;;4940308;28;20019;-85
2023/03/27 02:47:03;;;;;;;8.50;1.63;;;3.90;99.90;;;;;;4948170;28;20027;-83
2023/03/27 02:49:40;;;;;;;9.82;2.05;;;3.90;99.90;;;;;;4959436;28;20042;-84
2023/03/27 02:52:16;;;;;;;18.77;2.20;;;3.90;99.90;;;;;;4958864;28;20034;-84
2023/03/27 02:55:03;;;;;;;4.47;1.55;;;3.90;99.90;;;;;;4944297;28;20034;-84
2023/03/27 02:57:31;;;;;;;8.93;1.63;;;3.90;99.90;;;;;;4949839;28;20089;-83
2023/03/27 03:00:02;;;;;;;13.63;1.73;;;3.90;99.90;;;;;;4959974;28;20015;-85
2023/03/27 03:02:32;;;;;;;8.55;1.67;;;3.80;99.90;;;;;;4941808;28;20361;-83
2023/03/27 03:05:07;;;;;;;4.00;1.55;;;3.80;99.90;;;;;;4957734;28;20411;-84
2023/03/27 03:07:33;;;;;;;7.32;1.90;;;3.90;99.90;;;;;;4959399;28;20109;-84
2023/03/27 03:10:00;;;;;;;6.05;1.52;;;3.90;99.90;;;;;;4958682;28;20468;-83
2023/03/27 03:12:26;;;;;;;8.70;1.48;;;3.90;99.90;;;;;;4956552;28;20099;-85
2023/03/27 03:14:52;;;;;;;8.13;1.90;;;3.80;99.90;;;;;;4949179;28;20028;-84
2023/03/27 03:17:17;;;;;;;5.97;1.75;;;3.80;99.90;;;;;;4942810;28;20028;-83
2023/03/27 03:19:45;;;;;;;14.80;2.80;;;3.80;99.90;;;;;;4961522;28;20082;-84
2023/03/27 03:22:11;;;;;;;5.05;1.92;;;3.80;99.90;;;;;;4958179;28;20108;-84
2023/03/27 03:24:40;;;;;;;10.52;2.25;;;3.80;99.90;;;;;;4961736;28;20027;-84
2023/03/27 03:27:09;;;;;;;9.57;2.42;;;3.80;99.90;;;;;;4960990;28;20015;-83
2023/03/27 03:29:36;;;;;;;14.75;2.53;;;3.80;99.90;;;;;;4957681;28;20040;-84
2023/03/27 03:32:05;;;;;;;8.98;2.25;;;3.80;99.90;;;;;;4960785;28;20420;-85
2023/03/27 03:34:34;;;;;;;11.13;2.03;;;3.80;99.90;;;;;;4939863;28;20030;-85
2023/03/27 03:37:00;;;;;;;9.38;2.10;;;3.80;99.90;;;;;;4956220;28;20104;-84
2023/03/27 03:39:25;;;;;;;7.57;1.40;;;3.90;99.90;;;;;;4957931;28;20035;-85
2023/03/27 03:41:51;;;;;;;9.40;1.08;;;3.90;99.90;;;;;;4941240;28;20024;-83
2023/03/27 03:44:17;;;;;;;9.23;1.23;;;3.90;99.90;;;;;;4942972;28;20030;-83
2023/03/27 03:46:42;;;;;;;6.32;1.25;;;3.90;99.90;;;;;;4960170;28;20023;-84
2023/03/27 03:49:08;;;;;;;6.80;1.50;;;3.90;99.90;;;;;;4959970;28;20483;-84
2023/03/27 03:51:35;;;;;;;13.60;1.65;;;3.90;99.90;;;;;;4957676;28;20089;-84
2023/03/27 03:54:01;;;;;;;5.70;1.75;;;3.90;99.90;;;;;;4957661;28;20314;-84
2023/03/27 03:56:28;;;;;;;5.93;1.52;;;3.90;99.90;;;;;;4959053;28;20023;-84
2023/03/27 03:58:55;;;;;;;7.20;1.70;;;3.90;99.90;;;;;;4941658;28;20023;-85
2023/03/27 04:01:21;;;;;;;17.10;2.13;;;3.90;99.90;;;;;;4957493;28;20027;-84
2023/03/27 04:03:48;;;;;;;4.70;1.67;;;3.90;99.90;;;;;;4960694;28;20049;-84
2023/03/27 04:06:16;;;;;;;12.23;2.08;;;3.80;99.90;;;;;;4945592;28;20081;-84
2023/03/27 04:08:42;;;;;;;5.70;1.38;;;3.80;99.90;;;;;;4958171;28;20030;-84
2023/03/27 04:11:08;;;;;;;4.53;1.73;;;3.80;99.90;;;;;;4945096;28;20129;-84
2023/03/27 04:13:34;;;;;;;6.47;1.42;;;3.80;99.90;;;;;;4958790;28;20102;-84
2023/03/27 04:16:00;;;;;;;5.57;1.20;;;3.80;99.90;;;;;;4956605;28;20368;-84
2023/03/27 04:18:31;;;;;;;13.65;2.10;;;3.80;99.90;;;;;;4962440;28;20039;-85
2023/03/27 04:20:59;;;;;;;11.00;2.40;;;3.80;99.90;;;;;;4956664;28;20107;-84
2023/03/27 04:23:29;;;;;;;16.88;2.78;;;3.80;99.90;;;;;;4963971;28;20066;-84
2023/03/27 04:25:58;;;;;;;17.67;3.50;;;3.90;99.90;;;;;;4947903;28;20030;-83
2023/03/27 04:28:25;;;;;;;17.75;6.10;;;3.90;99.90;;;;;;4962227;28;20089;-84
2023/03/27 04:30:51;;;;;;;24.75;5.50;;;3.80;99.90;;;;;;4943857;28;20038;-84
2023/03/27 04:33:19;;;;;;;17.27;4.38;;;3.90;99.90;;;;;;4961130;28;20098;-83
2023/03/27 04:35:45;;;;;;;13.10;3.10;;;3.90;99.90;;;;;;4958198;28;20030;-84
2023/03/27 04:38:12;;;;;;;10.63;3.20;;;3.90;99.90;;;;;;4972383;28;20541;-83
2023/03/27 04:40:45;;;;;;;8.10;2.22;;;4.00;99.90;;;;;;4951684;28;20063;-84
2023/03/27 04:43:13;;;;;;;11.88;2.45;;;4.10;99.90;;;;;;4962250;28;20384;-84
2023/03/27 04:45:39;;;;;;;8.48;2.47;;;4.00;99.90;;;;;;4956955;28;20094;-84
2023/03/27 04:48:05;;;;;;;8.57;1.92;;;4.10;99.90;;;;;;4950253;28;20023;-85
2023/03/27 04:50:31;;;;;;;8.77;1.73;;;4.10;99.90;;;;;;4947508;28;20392;-84
2023/03/27 04:52:59;;;;;;;10.95;1.50;;;4.20;99.90;;;;;;4955116;28;20023;-83
2023/03/27 04:55:26;;;;;;;5.50;1.67;;;4.20;99.90;;;;;;4960958;28;20038;-85
2023/03/27 04:57:53;;;;;;;7.10;1.80;;;4.20;99.90;;;;;;4962472;28;20027;-85
2023/03/27 05:00:21;;;;;;;3.97;1.40;;;4.20;99.90;;;;;;4966512;28;20065;-85
2023/03/27 05:02:51;;;;;;;6.70;1.10;;;4.30;99.90;;;;;;4943318;28;20534;-83
2023/03/27 05:05:18;;;;;;;5.75;1.23;;;4.20;99.90;;;;;;4956482;28;20363;-85
2023/03/27 05:07:47;;;;;;;9.35;1.33;;;4.30;99.90;;;;;;4954056;28;20034;-85
2023/03/27 05:10:16;;;;;;;4.82;1.30;;;4.30;99.90;;;;;;4942298;28;20046;-85
2023/03/27 05:12:46;;;;;;;247.82;75.03;;;4.40;99.90;;;;;;4956671;28;20038;-81
2023/03/27 05:15:13;;;;;;;9.98;3.15;;;4.40;99.90;;;;;;4964214;28;20193;-85
2023/03/27 05:17:45;;;;;;;6.70;2.00;;;4.40;99.90;;;;;;4967853;28;20057;-83
2023/03/27 05:20:15;;;;;;;;;;;4.50;99.90;;;;;;4966235;28;20475;-85
2023/03/27 05:22:42;;;;;;;6.93;1.30;;;4.50;99.90;;;;;;4966320;28;19921;-84
2023/03/27 05:25:09;;;;;;;5.63;1.50;;;4.50;99.90;;;;;;4958397;28;20386;-85
2023/03/27 05:27:35;;;;;;;6.75;1.00;;;4.50;99.90;;;;;;4964030;28;20113;-85
2023/03/27 05:30:00;;;;;;;6.53;1.20;;;4.50;99.90;;;;;;4958556;28;20121;-84
2023/03/27 05:32:26;;;;;;;7.28;1.15;;;4.60;99.90;;;;;;4967102;28;20015;-86
2023/03/27 05:34:53;;;;;;;9.40;1.35;;;4.60;99.90;;;;;;4965594;28;20027;-84
2023/03/27 05:37:20;;;;;;;9.73;1.73;;;4.60;99.90;;;;;;4967204;28;20103;-84
2023/03/27 05:39:46;;;;;;;3.42;1.45;;;4.60;99.90;;;;;;4973968;28;20054;-85
2023/03/27 05:42:15;;;;;;;4.78;1.20;;;4.60;99.90;;;;;;4973423;28;20019;-85
2023/03/27 05:44:44;;;;;;;3.47;1.30;;;4.70;99.90;;;;;;4965852;28;20034;-86
2023/03/27 05:47:11;;;;;;;5.88;1.52;;;4.70;99.90;;;;;;4963325;28;20041;-84
2023/03/27 05:49:38;;;;;;;8.57;1.40;;;4.60;99.90;;;;;;4966126;28;20059;-85
2023/03/27 05:52:10;;;;;;;5.05;1.92;;;4.60;99.90;;;;;;4963385;28;20042;-87
2023/03/27 05:54:36;;;;;;;4.00;1.30;;;4.60;99.90;;;;;;4961784;28;20079;-85
2023/03/27 05:57:04;;;;;;;5.78;1.35;;;4.50;99.90;;;;;;4954415;28;20270;-85
2023/03/27 05:59:30;;;;;;;9.40;1.23;;;4.50;99.90;;;;;;4953919;28;20030;-85
2023/03/27 06:01:57;;;;;;;1.95;0.88;;;4.50;99.90;;;;;;4967997;28;20027;-85
2023/03/27 06:04:23;;;;;;;4.60;1.20;;;4.50;99.90;;;;;;4949910;28;20038;-86
2023/03/27 06:06:51;;;;;;;2.25;1.00;;;4.60;99.90;;;;;;4963682;28;20082;-85
2023/03/27 06:09:16;;;;;;;5.25;1.13;;;4.60;99.90;;;;;;4950627;28;20361;-84
2023/03/27 06:11:43;;;;;;;3.85;1.35;;;4.60;99.90;;;;;;4965360;28;20054;-85
2023/03/27 06:14:09;;;;;;;3.78;1.52;;;4.50;99.90;;;;;;4963800;28;20079;-84
2023/03/27 06:16:35;;;;;;;4.78;1.15;;;4.50;99.90;;;;;;4966062;28;20015;-86
2023/03/27 06:19:01;;;;;;;5.38;1.33;;;4.60;99.90;;;;;;4966420;28;20030;-85
2023/03/27 06:21:27;;;;;;;4.03;1.23;;;4.60;99.90;;;;;;4968627;28;20043;-86
2023/03/27 06:23:55;;;;;;;3.65;0.98;;;4.70;99.90;;;;;;4965329;28;20436;-85
2023/03/27 06:26:21;;;;;;;5.25;1.20;;;4.70;99.90;;;;;;4962538;28;20490;-85
2023/03/27 06:28:47;;;;;;;5.03;1.02;;;4.80;99.90;;;;;;4961819;28;20121;-86
2023/03/27 06:31:13;;;;;;;4.90;1.50;;;4.80;99.90;;;;;;4961687;28;20736;-86
2023/03/27 06:33:39;;;;;;;4.43;1.02;;;5.00;99.90;;;;;;4959605;28;20033;-87
2023/03/27 06:36:05;;;;;;;4.63;1.13;;;5.00;99.90;;;;;;4963698;28;20022;-87
2023/03/27 06:38:31;;;;;;;5.97;1.17;;;5.00;99.90;;;;;;4960432;28;20037;-86
2023/03/27 06:40:58;;;;;;;1.80;0.80;;;5.00;99.90;;;;;;4965398;28;20062;-87
2023/03/27 06:43:24;;;;;;;4.55;0.98;;;5.10;99.90;;;;;;4952409;28;20058;-86
2023/03/27 06:45:51;;;;;;;4.55;1.10;;;5.10;99.90;;;;;;4946340;28;20093;-86
2023/03/27 06:48:18;;;;;;;5.82;1.10;;;5.20;99.90;;;;;;4964764;28;20066;-86
2023/03/27 06:50:45;;;;;;;3.65;1.00;;;5.20;99.90;;;;;;4961007;28;20484;-85
2023/03/27 06:53:15;;;;;;;2.85;0.65;;;5.30;99.90;;;;;;4949476;28;20070;-86
2023/03/27 06:55:41;;;;;;;6.15;1.00;;;5.40;99.90;;;;;;4960938;28;20345;-85
2023/03/27 06:58:07;;;;;;;8.68;1.02;;;5.40;99.90;;;;;;4955532;28;20022;-86
2023/03/27 07:00:34;;;;;;;4.97;1.10;;;5.40;99.90;;;;;;4958483;28;20022;-86
2023/03/27 07:03:05;;;;;;;1.05;0.63;;;5.40;99.90;;;;;;4962564;28;20030;-84
2023/03/27 07:05:35;;;;;;;4.22;0.75;;;5.40;99.90;;;;;;4962563;28;20066;-84
2023/03/27 07:08:05;;;;;;;2.40;0.98;;;5.50;99.90;;;;;;4956957;28;20058;-85
2023/03/27 07:10:31;;;;;;;2.13;0.90;;;5.40;99.90;;;;;;4963159;28;20026;-84
2023/03/27 07:12:57;;;;;;;2.97;1.10;;;5.40;99.90;;;;;;4961187;28;20300;-84
2023/03/27 07:15:23;;;;;;;3.58;1.00;;;5.50;99.90;;;;;;4958448;28;20072;-83
2023/03/27 07:17:57;;;;;;;2.83;0.90;;;5.50;99.90;;;;;;4949562;28;20315;-84
2023/03/27 07:20:23;;;;;;;3.38;1.23;;;5.60;99.90;;;;;;4960000;28;20046;-84
2023/03/27 07:22:50;;;;;;;3.38;1.00;;;5.70;99.90;;;;;;4961012;28;20027;-86
2023/03/27 07:25:15;;;;;;;4.55;1.40;;;5.70;99.90;;;;;;4962293;28;20023;-86
2023/03/27 07:27:41;;;;;;;4.05;0.80;;;5.80;99.90;;;;;;4961335;28;20541;-85
2023/03/27 07:30:10;;;;;;;3.60;1.13;;;5.80;99.90;;;;;;4956793;28;20106;-86
2023/03/27 07:32:37;;;;;;;8.00;1.13;;;5.90;99.90;;;;;;4963446;28;20102;-86
2023/03/27 07:35:05;;;;;;;7.53;1.30;;;6.00;99.90;;;;;;4960060;28;20107;-86
2023/03/27 07:37:31;;;;;;;3.60;1.02;;;6.10;99.90;;;;;;4966453;28;20015;-86
2023/03/27 07:39:56;;;;;;;6.88;1.05;;;6.10;99.90;;;;;;4966280;28;20025;-86
2023/03/27 07:42:22;;;;;;;4.97;1.25;;;6.20;99.90;;;;;;4963837;28;20030;-86
2023/03/27 07:44:48;;;;;;;5.15;1.42;;;6.20;99.90;;;;;;4944195;28;20446;-86
2023/03/27 07:47:14;;;;;;;10.88;2.20;;;6.30;99.90;;;;;;4960932;28;20061;-86
2023/03/27 07:49:40;;;;;;;2.13;1.40;;;6.40;99.90;;;;;;4959983;28;20390;-87
2023/03/27 07:52:08;;;;;;;1.63;1.27;;;6.60;99.90;;;;;;4958614;28;20014;-87
2023/03/27 07:54:34;;;;;;;5.63;1.80;;;6.60;99.90;;;;;;4964227;28;20031;-89
2023/03/27 07:57:03;;;;;;;10.02;1.67;;;6.60;99.90;;;;;;4961706;28;20050;-90
2023/03/27 07:59:29;;;;;;;19.48;2.13;;;6.80;99.90;;;;;;4949024;28;20023;-87
2023/03/27 08:01:56;;;;;;;4.70;1.30;;;7.00;99.90;;;;;;4956982;28;20540;-88
2023/03/27 08:04:22;;;;;;;14.30;1.33;;;7.10;99.90;;;;;;4960762;28;20069;-88
2023/03/27 08:06:53;;;;;;;3.90;1.33;;;7.20;99.90;;;;;;4962254;28;20166;-88
2023/03/27 08:09:19;;;;;;;6.07;1.02;;;7.30;99.90;;;;;;4942420;28;20734;-86
2023/03/27 08:11:45;;;;;;;5.05;1.38;;;7.30;99.90;;;;;;4962045;28;20022;-89
2023/03/27 08:14:12;;;;;;;4.10;1.40;;;7.30;99.90;;;;;;4957818;28;20630;-87
2023/03/27 08:16:38;;;;;;;4.47;1.15;;;7.30;99.90;;;;;;4959105;28;20180;-88
2023/03/27 08:19:05;;;;;;;7.85;1.40;;;7.40;99.90;;;;;;4950335;28;20028;-86
2023/03/27 08:21:32;;;;;;;3.00;1.30;;;7.50;99.90;;;;;;4944235;28;20423;-88
2023/03/27 08:23:58;;;;;;;2.55;1.25;;;7.50;99.90;;;;;;4959550;28;20156;-85
2023/03/27 08:26:25;;;;;;;7.05;2.10;;;7.80;99.90;;;;;;4954569;28;20101;-88
2023/03/27 08:28:55;;;;;;;1.45;0.98;;;7.90;99.90;;;;;;4956817;28;20362;-89
2023/03/27 08:31:28;;;;;;;5.07;1.35;;;7.90;99.90;;;;;;4939950;28;20149;-89
2023/03/27 08:33:53;;;;;;;4.38;1.10;;;8.10;99.90;;;;;;4943659;28;20026;-88
2023/03/27 08:36:19;;;;;;;6.18;1.70;;;8.10;99.90;;;;;;4942541;28;20026;-87
2023/03/27 08:38:45;;;;;;;4.40;1.00;;;8.20;99.90;;;;;;4959939;28;20093;-87
2023/03/27 08:41:37;;;;;;;5.93;1.23;;;8.30;99.90;;;;;;4961617;28;20023;-88
2023/03/27 08:44:05;;;;;;;3.00;1.25;;;8.50;99.90;;;;;;4956300;28;20193;-85
2023/03/27 08:47:15;;;;;;;3.78;1.25;;;8.60;99.90;;;;;;4957364;28;20022;-85
2023/03/27 08:49:46;;;;;;;4.75;1.80;;;8.80;99.90;;;;;;4899037;29;20244;-87
2023/03/27 08:52:23;;;;;;;5.65;2.25;;;8.90;99.90;;;;;;4936228;28;20075;-86
2023/03/27 08:54:59;;;;;;;4.95;1.67;;;9.00;99.90;;;;;;4958677;28;20026;-87
2023/03/27 08:57:30;;;;;;;4.50;1.20;;;9.20;99.90;;;;;;4957805;28;20019;-86
2023/03/27 09:00:08;;;;;;;5.63;1.75;;;9.50;99.90;;;;;;4964700;28;20460;-84
2023/03/27 09:02:55;;;;;;;8.05;2.10;;;9.60;99.90;;;;;;5132715;23;20077;-85
2023/03/27 09:05:46;;;;;;;4.03;1.38;;;10.00;99.90;;;;;;4988365;28;20433;-85
2023/03/27 09:08:30;;;;;;;8.73;2.28;;;10.00;99.90;;;;;;5006005;28;20029;-85
2023/03/27 09:11:30;;;;;;;4.90;1.70;;;10.00;99.90;;;;;;4988832;28;20026;-89
2023/03/27 09:14:05;;;;;;;8.75;2.05;;;10.20;99.90;;;;;;5018090;28;20033;-85
2023/03/27 09:16:32;;;;;;;8.70;1.70;;;10.20;99.90;;;;;;5021960;28;20085;-86
2023/03/27 09:19:17;;;;;;;5.85;1.63;;;9.80;99.90;;;;;;4995499;28;20044;-83
2023/03/27 09:21:56;;;;;;;9.80;1.73;;;9.60;99.90;;;;;;4988591;28;20120;-84
2023/03/27 09:24:45;;;;;;;3.90;1.55;;;9.90;99.90;;;;;;4984698;28;20022;-83
2023/03/27 09:27:19;;;;;;;15.35;1.88;;;10.10;99.90;;;;;;5014222;28;20042;-86
2023/03/27 09:29:58;;;;;;;8.68;2.03;;;10.80;99.90;;;;;;5011569;28;20042;-93
2023/03/27 09:32:25;;;;;;;8.25;1.40;;;11.40;99.90;;;;;;5009117;28;20026;-86
2023/03/27 09:34:51;;;;;;;15.48;1.48;;;12.00;99.90;;;;;;5004814;28;20026;-87
2023/03/27 09:37:16;;;;;;;4.72;1.13;;;12.10;99.90;;;;;;4988600;28;20378;-83
2023/03/27 09:39:48;;;;;;;5.85;1.20;;;12.30;99.90;;;;;;4995055;28;20025;-81
2023/03/27 09:42:24;;;;;;;5.88;1.10;;;12.30;99.90;;;;;;4993305;28;20550;-83
2023/03/27 09:45:01;;;;;;;4.00;0.93;;;12.90;99.90;;;;;;4977767;28;20041;-85
2023/03/27 09:47:49;;;;;;;0.68;0.52;;;13.70;99.90;;;;;;4987137;28;20397;-83
2023/03/27 09:50:18;;;;;;;3.45;0.85;;;12.80;99.90;;;;;;4977604;28;20029;-82
2023/03/27 09:52:44;;;;;;;3.67;1.10;;;12.00;99.90;;;;;;4990164;28;20040;-83
2023/03/27 09:55:30;;;;;;;5.68;1.10;;;12.80;99.90;;;;;;4977734;28;20639;-81
2023/03/27 09:58:14;;;;;;;7.13;1.10;;;14.30;99.90;;;;;;4994015;28;20026;-83
2023/03/27 10:00:39;;;;;;;3.90;1.10;;;14.20;97.60;;;;;;4994112;28;20030;-86
2023/03/27 10:03:16;;;;;;;2.45;1.27;;;13.20;98.40;;;;;;5014276;28;20029;-86
2023/03/27 10:05:45;;;;;;;7.30;1.83;;;12.50;97.30;;;;;;4997006;28;20182;-85
2023/03/27 10:08:23;;;;;;;11.40;3.55;;;12.50;98.70;;;;;;4994838;28;20030;-84
2023/03/27 10:10:57;;;;;;;5.28;1.20;;;13.40;97.90;;;;;;4977631;28;20046;-84
2023/03/27 10:13:27;;;;;;;3.35;1.98;;;14.40;96.80;;;;;;4975854;28;20030;-86
2023/03/27 10:16:04;;;;;;;9.30;2.80;;;13.80;96.20;;;;;;4978346;28;20061;-83
2023/03/27 10:18:33;;;;;;;6.03;1.75;;;12.30;98.30;;;;;;4977492;28;20026;-88
2023/03/27 10:21:05;;;;;;;7.10;1.35;;;11.10;99.90;;;;;;4995008;28;20049;-87
2023/03/27 10:23:48;;;;;;;3.92;0.82;;;10.60;99.90;;;;;;4982517;28;20064;-86
2023/03/27 10:26:19;;;;;;;;;;;9.90;99.90;;;;;;4999533;28;20126;-82
2023/03/27 10:28:51;;;;;;;3.13;0.90;;;9.70;99.90;;;;;;4978397;28;19909;-84
2023/03/27 10:31:36;;;;;;;3.10;0.70;;;9.90;99.90;;;;;;4985547;28;20384;-88
2023/03/27 10:34:05;;;;;;;7.07;0.70;;;10.60;99.90;;;;;;4975066;28;20026;-85
2023/03/27 10:36:36;;;;;;;3.15;0.70;;;11.20;99.90;;;;;;4977319;28;20577;-85
2023/03/27 10:39:10;;;;;;;3.40;0.90;;;12.00;99.90;;;;;;4995175;28;20053;-85
2023/03/27 10:41:37;;;;;;;3.17;0.68;;;12.80;99.90;;;;;;4983994;28;20501;-85
2023/03/27 10:44:12;;;;;;;4.07;0.63;;;13.50;99.90;;;;;;4980371;28;20137;-86
2023/03/27 10:46:39;;;;;;;3.38;0.90;;;14.10;99.70;;;;;;4996208;28;20025;-82
2023/03/27 10:49:30;;;;;;;1.67;0.55;;;14.00;97.40;;;;;;4996204;28;20026;-85
2023/03/27 10:52:09;;;;;;;3.72;0.90;;;14.00;97.80;;;;;;4977309;28;20117;-84
2023/03/27 10:55:00;;;;;;;2.63;0.80;;;13.20;97.30;;;;;;4998334;28;20500;-84
2023/03/27 10:57:32;;;;;;;1.80;0.60;;;12.30;99.90;;;;;;4977774;28;20027;-85
2023/03/27 11:00:17;;;;;;;3.78;0.60;;;11.80;99.90;;;;;;4983542;28;20152;-84
2023/03/27 11:02:58;;;;;;;2.53;0.85;;;11.40;99.90;;;;;;4974285;28;20389;-83
2023/03/27 11:05:33;;;;;;;1.80;0.60;;;11.50;99.90;;;;;;4975911;28;20035;-85
2023/03/27 11:08:20;;;;;;;1.10;0.47;;;12.10;99.90;;;;;;4968907;28;20070;-84
2023/03/27 11:10:48;;;;;;;2.95;1.30;;;12.40;99.90;;;;;;4991524;28;20046;-82
2023/03/27 11:13:34;;;;;;;0.73;0.60;;;11.80;97.30;;;;;;4982700;28;20466;-82
2023/03/27 11:16:27;;;;;;;1.63;0.52;;;12.00;98.30;;;;;;4993335;28;20125;-83
2023/03/27 11:19:21;;;;;;;2.05;0.60;;;12.90;97.50;;;;;;4977245;28;20421;-82
2023/03/27 11:21:57;;;;;;;1.40;0.77;;;13.10;94.10;;;;;;4978954;28;20041;-84
2023/03/27 11:24:39;;;;;;;4.38;0.60;;;12.90;95.80;;;;;;4977711;28;20029;-86
2023/03/27 11:27:19;;;;;;;4.70;0.77;;;13.20;95.60;;;;;;4993059;28;20041;-83
2023/03/27 11:29:57;;;;;;;1.60;0.80;;;13.00;93.90;;;;;;4994317;28;20038;-87
2023/03/27 11:33:05;;;;;;;4.32;0.75;;;13.00;93.00;;;;;;4986497;28;20394;-91
2023/03/27 11:35:40;;;;;;;3.17;0.70;;;12.80;93.70;;;;;;4993702;28;20026;-90
2023/03/27 11:38:26;;;;;;;1.20;0.50;;;12.90;94.40;;;;;;4977154;28;20526;-80
2023/03/27 11:40:52;;;;;;;1.02;0.75;;;13.10;93.00;;;;;;5005504;28;20454;-86
2023/03/27 11:43:19;;;;;;;8.25;1.10;;;12.80;92.40;;;;;;4994273;28;20046;-90
2023/03/27 11:46:52;;;;;;;2.92;0.73;;;13.10;93.30;;;;;;5306439;23;20412;-82
2023/03/27 11:49:21;;;;;;;3.03;0.90;;;13.60;91.60;;;;;;4901936;28;20063;-81
2023/03/27 11:52:04;;;;;;;1.90;0.80;;;13.60;91.30;;;;;;5002010;28;20038;-89
2023/03/27 11:54:41;;;;;;;2.25;0.80;;;13.60;91.70;;;;;;4976123;28;20030;-85
2023/03/27 11:57:22;;;;;;;5.72;0.82;;;13.40;91.80;;;;;;4978842;28;20128;-85
2023/03/27 12:00:06;;;;;;;3.35;0.80;;;13.40;91.60;;;;;;4977542;28;20018;-83
2023/03/27 12:02:51;;;;;;;0.93;0.60;;;13.10;92.70;;;;;;4998570;28;20117;-84
2023/03/27 12:05:27;;;;;;;2.70;0.70;;;12.30;97.00;;;;;;4998955;28;20068;-83
2023/03/27 12:08:20;;;;;;;0.68;0.40;;;11.50;99.60;;;;;;4981840;28;20021;-82
2023/03/27 12:10:49;;;;;;;2.03;0.57;;;10.70;99.90;;;;;;5001756;28;20423;-83
2023/03/27 12:13:48;;;;;;;4.32;0.85;;;9.80;99.90;;;;;;4994499;28;20401;-80
2023/03/27 12:16:28;;;;;;;1.33;0.50;;;8.90;99.90;;;;;;4979491;28;20057;-83
2023/03/27 12:19:00;;;;;;;0.60;0.50;;;8.60;99.90;;;;;;5083950;23;1210838;-82
2023/03/27 12:22:02;;;;;;;5.85;1.13;;;8.40;99.90;;;;;;4999915;28;20276;-84
2023/03/27 12:24:44;;;;;;;2.80;0.98;;;8.40;99.90;;;;;;4984066;28;20597;-84
2023/03/27 12:27:19;;;;;;;1.33;0.60;;;8.20;99.90;;;;;;4982896;28;20171;-85
2023/03/27 12:29:56;;;;;;;1.45;0.60;;;7.80;99.90;;;;;;5002730;28;20033;-84
2023/03/27 12:32:22;;;;;;;5.13;1.05;;;7.40;99.90;;;;;;4997650;28;20096;-85
2023/03/27 12:35:15;;;;;;;2.88;0.80;;;7.30;99.90;;;;;;4975873;28;20097;-85
2023/03/27 12:37:42;;;;;;;2.92;0.73;;;7.30;99.90;;;;;;4969532;28;20333;-80
2023/03/27 12:40:23;;;;;;;4.35;0.98;;;7.20;99.90;;;;;;4991266;28;20072;-83
2023/03/27 12:42:51;;;;;;;2.72;0.50;;;7.20;99.90;;;;;;4979301;28;20371;-83
2023/03/27 12:45:23;;;;;;;8.02;0.60;;;7.10;99.90;;;;;;4998001;28;20506;-78
2023/03/27 12:48:11;;;;;;;3.03;0.55;;;6.80;99.90;;;;;;4997933;28;20144;-78
2023/03/27 12:50:45;;;;;;;7.57;0.57;;;6.70;99.90;;;;;;4999446;28;20392;-83
2023/03/27 12:53:26;;;;;;;4.93;0.75;;;7.20;99.90;;;;;;4998833;28;20036;-81
2023/03/27 12:56:12;;;;;;;12.05;0.90;;;8.50;99.90;;;;;;4984406;28;20709;-80
2023/03/27 12:58:39;;;;;;;5.57;0.82;;;9.60;99.90;;;;;;4984028;28;20042;-82
2023/03/27 13:01:10;;;;;;;5.45;0.70;;;10.10;99.90;;;;;;4983071;28;20429;-84
2023/03/27 13:03:35;;;;;;;4.03;0.90;;;11.20;99.90;;;;;;5000409;28;20660;-84
2023/03/27 13:06:29;;;;;;;5.45;0.90;;;11.80;99.90;;;;;;4999172;28;20121;-85
2023/03/27 13:09:11;;;;;;;3.55;0.88;;;12.40;99.90;;;;;;5000153;28;20057;-84
2023/03/27 13:12:04;;;;;;;3.47;1.10;;;13.00;99.80;;;;;;4982985;28;20496;-85
2023/03/27 13:14:36;;;;;;;;;;;13.50;98.00;;;;;;4999028;28;20038;-85
2023/03/27 13:17:39;;;;;;;1.95;0.70;;;13.80;97.20;;;;;;4982832;28;19909;-85
2023/03/27 13:20:23;;;;;;;3.85;0.90;;;14.40;97.90;;;;;;4984840;28;20034;-84
2023/03/27 13:23:07;;;;;;;2.22;0.68;;;15.10;95.90;;;;;;5011575;28;20025;-87